Time;durP1;ratioP1;P1;durP2;ratioP2;P2;SDS_P1;SDS_P2;PMS_P1;PMS_P2;Temp;Humidity;BMP_temperature;BMP_pressure;BME280_temperature;BME280_humidity;BME280_pressure;Samples;Min_cycle;Max_cycle;Signal;HPM_P1;HPM_P2
2022/12/11 00:03:04;;;;;;;126.27;36.53;;;;;;;-2.20;100.00;101118.13;10557543;27;20043;-72
2022/12/11 00:08:04;;;;;;;113.50;33.17;;;;;;;-2.16;100.00;101124.03;10504005;27;20040;-73
2022/12/11 00:13:05;;;;;;;124.80;36.67;;;;;;;-2.21;100.00;101118.25;10551334;27;20477;-73
2022/12/11 00:18:06;;;;;;;118.47;33.17;;;;;;;-2.20;100.00;101133.47;10556272;27;20454;-73
2022/12/11 00:23:06;;;;;;;100.43;31.17;;;;;;;-2.25;100.00;101113.22;10538474;28;20062;-73
2022/12/11 00:28:07;;;;;;;109.00;33.77;;;;;;;-2.30;100.00;101107.47;10552838;27;20561;-74
2022/12/11 00:33:08;;;;;;;121.10;33.33;;;;;;;-2.28;100.00;101121.63;10545856;28;20051;-73
2022/12/11 00:38:13;;;;;;;108.37;34.43;;;;;;;-2.35;100.00;101099.03;10556111;27;20411;-73
2022/12/11 00:43:13;;;;;;;112.23;34.13;;;;;;;-2.47;100.00;101079.59;10539206;27;20036;-72
2022/12/11 00:48:14;;;;;;;108.60;31.27;;;;;;;-2.32;100.00;101122.13;10511995;28;20036;-72
2022/12/11 00:53:15;;;;;;;97.70;30.07;;;;;;;-2.41;100.00;101110.47;10538389;28;20044;-73
2022/12/11 00:58:15;;;;;;;110.33;33.30;;;;;;;-2.36;100.00;101127.00;10555266;28;20043;-73
2022/12/11 01:03:16;;;;;;;118.27;32.30;;;;;;;-2.27;100.00;101123.31;10538816;27;20050;-73
2022/12/11 01:08:17;;;;;;;102.13;31.50;;;;;;;-2.18;100.00;101136.84;10517916;28;20032;-73
2022/12/11 01:13:17;;;;;;;102.97;32.37;;;;;;;-2.20;100.00;101122.66;10532336;28;20047;-69
2022/12/11 01:18:18;;;;;;;72.20;26.87;;;;;;;-2.17;100.00;101133.13;10538056;27;20047;-72
2022/12/11 01:23:21;;;;;;;76.40;27.97;;;;;;;-2.47;100.00;101076.06;10549654;28;20036;-73
2022/12/11 01:28:22;;;;;;;88.37;27.43;;;;;;;-2.16;100.00;101118.63;10554164;28;20135;-73
2022/12/11 01:33:22;;;;;;;85.07;27.53;;;;;;;-2.03;100.00;101135.19;10553847;27;20070;-74
2022/12/11 01:38:23;;;;;;;70.50;25.73;;;;;;;-2.10;100.00;101123.38;10546966;27;20039;-73
2022/12/11 01:43:23;;;;;;;88.03;25.57;;;;;;;-2.05;100.00;101123.69;10545924;27;20040;-73
2022/12/11 01:48:28;;;;;;;69.90;26.87;;;;;;;-2.04;100.00;101128.94;10562816;28;20578;-73
2022/12/11 01:53:40;;;;;;;81.60;27.37;;;;;;;-1.90;100.00;101129.28;10545752;27;20044;-73
2022/12/11 01:58:46;;;;;;;80.27;28.57;;;;;;;-1.84;100.00;101144.81;10526631;28;20127;-72
2022/12/11 02:03:47;;;;;;;70.60;25.50;;;;;;;-1.86;100.00;101136.91;10508795;28;20042;-72
2022/12/11 02:08:47;;;;;;;71.93;25.23;;;;;;;-1.93;100.00;101119.69;10502605;28;20036;-72
2022/12/11 02:13:59;;;;;;;74.90;25.17;;;;;;;-1.85;100.00;101137.75;10520205;28;20051;-73
2022/12/11 02:19:06;;;;;;;72.03;24.00;;;;;;;-1.87;100.00;101127.09;10504443;28;20107;-73
2022/12/11 02:24:31;;;;;;;68.83;25.40;;;;;;;-1.80;100.00;101129.13;10485914;27;20111;-73
2022/12/11 02:29:34;;;;;;;70.53;26.53;;;;;;;-1.78;100.00;101132.53;10538899;27;20048;-73
2022/12/11 02:34:43;;;;;;;72.57;24.77;;;;;;;-1.89;100.00;101112.94;10503379;27;20062;-73
2022/12/11 02:39:44;;;;;;;60.90;22.97;;;;;;;-1.80;100.00;101112.94;10502589;27;20040;-72
2022/12/11 02:44:44;;;;;;;62.93;20.97;;;;;;;-1.72;100.00;101127.28;10502023;27;20036;-72
2022/12/11 02:49:47;;;;;;;67.53;24.57;;;;;;;-2.41;100.00;100999.94;10487755;27;20514;-72
2022/12/11 02:54:47;;;;;;;66.73;22.20;;;;;;;-1.68;100.00;101117.00;10510830;27;20091;-73
2022/12/11 02:59:48;;;;;;;66.60;23.37;;;;;;;-1.59;100.00;101115.16;10484997;28;20086;-73
2022/12/11 03:04:48;;;;;;;64.07;21.50;;;;;;;-1.66;100.00;101096.09;10517837;28;20056;-73
2022/12/11 03:09:49;;;;;;;64.90;21.83;;;;;;;-1.59;100.00;101096.25;10517493;28;20048;-72
2022/12/11 03:14:49;;;;;;;64.27;22.93;;;;;;;-1.52;100.00;101100.81;10503307;27;20040;-72
2022/12/11 03:19:59;;;;;;;65.67;21.83;;;;;;;-1.46;100.00;101086.63;10517495;28;20028;-73
2022/12/11 03:25:03;;;;;;;72.23;25.97;;;;;;;-1.46;100.00;101094.72;10520305;28;20043;-72
2022/12/11 03:30:18;;;;;;;70.40;26.43;;;;;;;-1.47;100.00;101093.06;10501550;27;20380;-73
2022/12/11 03:35:28;;;;;;;64.37;25.20;;;;;;;-1.47;100.00;101076.84;10485026;28;20132;-72
2022/12/11 03:40:28;;;;;;;73.70;23.90;;;;;;;-1.48;100.00;101075.16;10517832;28;20108;-73
2022/12/11 03:45:28;;;;;;;81.00;23.30;;;;;;;-1.50;100.00;101070.94;10505009;27;20051;-72
2022/12/11 03:50:30;;;;;;;79.33;24.57;;;;;;;-1.52;100.00;101068.41;10539541;27;20051;-72
2022/12/11 03:55:31;;;;;;;74.77;23.40;;;;;;;-1.35;100.00;101090.00;10558493;27;20043;-73
2022/12/11 04:00:31;;;;;;;76.90;27.00;;;;;;;-1.45;100.00;101068.56;10540726;27;20071;-72
2022/12/11 04:05:32;;;;;;;75.97;24.47;;;;;;;-1.31;100.00;101085.94;10557338;27;20100;-72
2022/12/11 04:10:32;;;;;;;64.47;23.77;;;;;;;-1.31;100.00;101080.53;10540941;28;20028;-73
2022/12/11 04:15:33;;;;;;;73.17;25.23;;;;;;;-1.35;100.00;101063.81;10558474;28;20067;-73
2022/12/11 04:25:53;;;;;;;74.13;24.43;;;;;;;-1.44;100.00;101060.28;10515107;28;20056;-72
2022/12/11 04:30:53;;;;;;;73.53;24.10;;;;;;;-1.30;100.00;101076.81;10514697;28;20036;-72
2022/12/11 04:35:56;;;;;;;64.17;24.37;;;;;;;-1.45;100.00;101047.81;10498588;28;20056;-73
2022/12/11 04:41:01;;;;;;;65.40;23.47;;;;;;;-1.26;100.00;101070.03;10514676;27;20044;-72
2022/12/11 04:46:09;;;;;;;66.07;26.20;;;;;;;-1.26;100.00;101048.44;10514921;27;20051;-72
2022/12/11 04:51:10;;;;;;;74.97;23.07;;;;;;;-1.23;100.00;101056.22;10532161;28;20040;-73
2022/12/11 04:56:12;;;;;;;70.43;24.10;;;;;;;-1.27;100.00;101055.69;10539889;28;20040;-73
2022/12/11 05:01:14;;;;;;;65.37;24.47;;;;;;;-1.27;100.00;101050.31;10521279;27;20040;-72
2022/12/11 05:06:15;;;;;;;77.13;26.70;;;;;;;-1.32;100.00;101030.25;10505634;27;20047;-73
2022/12/11 05:11:16;;;;;;;72.03;24.77;;;;;;;-1.21;100.00;101054.19;10538047;28;20040;-73
2022/12/11 05:16:17;;;;;;;83.67;26.07;;;;;;;-1.11;100.00;101060.22;10533380;27;20047;-72
2022/12/11 05:21:17;;;;;;;71.17;24.87;;;;;;;-1.13;100.00;101062.25;10579218;28;20387;-72
2022/12/11 05:26:18;;;;;;;83.63;26.43;;;;;;;-1.12;100.00;101063.94;10579214;28;20099;-73
2022/12/11 05:31:20;;;;;;;76.07;26.23;;;;;;;-1.18;100.00;101042.16;10579385;28;20042;-73
2022/12/11 05:36:23;;;;;;;74.53;25.00;;;;;;;-1.15;100.00;101047.25;10563108;28;20039;-72
2022/12/11 05:41:24;;;;;;;82.40;25.40;;;;;;;-1.14;100.00;101043.50;10562960;28;20039;-72
2022/12/11 05:46:26;;;;;;;81.97;26.47;;;;;;;-1.10;100.00;101048.38;10578890;28;20036;-72
2022/12/11 05:51:27;;;;;;;75.70;25.47;;;;;;;-1.17;100.00;101044.72;10562775;27;20400;-72
2022/12/11 05:56:29;;;;;;;90.77;27.93;;;;;;;-1.05;100.00;101059.53;10578690;28;20048;-73
2022/12/11 06:01:37;;;;;;;78.53;26.93;;;;;;;-1.09;100.00;101054.66;10544032;28;20040;-73
2022/12/11 06:06:39;;;;;;;87.77;26.43;;;;;;;-1.08;100.00;101048.22;10562823;28;20032;-72
2022/12/11 06:11:39;;;;;;;99.80;27.50;;;;;;;-1.07;100.00;101047.22;10579411;28;20036;-73
2022/12/11 06:16:40;;;;;;;81.10;28.70;;;;;;;-1.13;100.00;101034.41;10562028;27;20159;-73
2022/12/11 06:21:40;;;;;;;89.13;28.53;;;;;;;-0.97;100.00;101065.91;10583035;28;20027;-73
2022/12/11 06:26:41;;;;;;;86.40;29.73;;;;;;;-1.13;100.00;101023.59;10585932;27;20415;-73
2022/12/11 06:31:41;;;;;;;84.63;30.33;;;;;;;-0.98;100.00;101056.97;10585972;27;20395;-72
2022/12/11 06:36:42;;;;;;;90.50;29.07;;;;;;;-1.11;100.00;101051.28;10552175;27;20059;-73
2022/12/11 06:41:42;;;;;;;75.60;25.40;;;;;;;-1.06;100.00;101030.81;10586456;28;20502;-72
2022/12/11 06:46:43;;;;;;;91.57;28.27;;;;;;;-1.03;100.00;101043.16;10570259;27;20032;-72
2022/12/11 06:51:43;;;;;;;84.20;26.37;;;;;;;-1.01;100.00;101065.44;10556589;27;20073;-72
2022/12/11 06:56:44;;;;;;;75.57;27.60;;;;;;;-1.04;100.00;101054.97;10584592;27;20054;-72
2022/12/11 07:01:44;;;;;;;77.17;26.03;;;;;;;-1.10;100.00;101040.28;10567737;27;20028;-72
2022/12/11 07:06:46;;;;;;;79.90;25.30;;;;;;;-1.07;100.00;101061.56;10586444;27;20036;-72
2022/12/11 07:11:48;;;;;;;71.40;26.00;;;;;;;-1.07;100.00;101066.97;10567393;27;20055;-72
2022/12/11 07:16:49;;;;;;;79.07;26.53;;;;;;;-1.07;100.00;101060.72;10567168;27;20384;-74
2022/12/11 07:21:49;;;;;;;81.13;28.90;;;;;;;-1.05;100.00;101075.75;10583765;28;20036;-74
2022/12/11 07:26:50;;;;;;;74.70;24.83;;;;;;;-1.12;100.00;101063.94;10583416;28;20031;-74
2022/12/11 07:31:51;;;;;;;69.83;27.00;;;;;;;-1.06;100.00;101074.06;10566898;27;20226;-74
2022/12/11 07:36:51;;;;;;;78.50;25.70;;;;;;;-1.20;100.00;101050.44;10583842;28;20040;-74
2022/12/11 07:41:52;;;;;;;71.23;25.57;;;;;;;-1.15;100.00;101064.28;10584459;27;20032;-74
2022/12/11 07:46:52;;;;;;;74.60;25.80;;;;;;;-1.07;100.00;101069.69;10583156;27;20035;-72
2022/12/11 07:51:53;;;;;;;67.80;25.13;;;;;;;-1.05;100.00;101069.50;10582627;28;20047;-73
2022/12/11 07:56:53;;;;;;;69.10;24.20;;;;;;;-1.08;100.00;101073.38;10582254;27;20043;-73
2022/12/11 08:01:54;;;;;;;72.17;23.27;;;;;;;-1.16;100.00;101049.09;10581867;27;20042;-74
2022/12/11 08:06:54;;;;;;;64.17;24.83;;;;;;;-1.04;100.00;101066.59;10565645;28;20040;-74
2022/12/11 08:11:55;;;;;;;65.73;24.10;;;;;;;-1.03;100.00;101070.19;10582801;27;20024;-73
2022/12/11 08:16:56;;;;;;;61.87;22.23;;;;;;;-1.13;100.00;101045.22;10583635;27;20043;-73
2022/12/11 08:21:57;;;;;;;63.07;24.03;;;;;;;-1.47;100.00;100994.97;10563436;27;20050;-74
2022/12/11 08:26:57;;;;;;;58.60;24.93;;;;;;;-1.07;100.00;101060.72;10581546;27;20349;-74
2022/12/11 08:31:58;;;;;;;61.80;25.50;;;;;;;-0.98;100.00;101077.75;10581659;28;20036;-74
2022/12/11 08:36:58;;;;;;;60.87;22.63;;;;;;;-1.05;100.00;101054.13;10581724;28;20035;-74
2022/12/11 08:41:59;;;;;;;54.13;22.03;;;;;;;-0.94;100.00;101071.00;10581331;28;20085;-73
2022/12/11 08:46:59;;;;;;;58.07;22.30;;;;;;;-0.82;100.00;101075.84;10546750;27;20036;-74
2022/12/11 08:52:00;;;;;;;61.60;22.77;;;;;;;-0.84;100.00;101071.63;10581874;27;20028;-73
2022/12/11 08:57:00;;;;;;;56.43;21.33;;;;;;;-0.80;100.00;101074.84;10563568;28;20048;-74
2022/12/11 09:02:01;;;;;;;63.80;22.43;;;;;;;-0.75;100.00;101085.94;10563601;28;20035;-74
2022/12/11 09:07:01;;;;;;;68.20;24.60;;;;;;;-0.79;100.00;101069.22;10582327;28;20031;-73
2022/12/11 09:12:03;;;;;;;69.20;24.87;;;;;;;-0.69;100.00;101083.38;10564042;28;20046;-74
2022/12/11 09:17:04;;;;;;;63.10;23.75;;;;;;;-0.83;100.00;101057.09;10579708;27;20039;-74
2022/12/11 09:22:04;;;;;;;62.47;23.13;;;;;;;-0.65;100.00;101089.28;10545391;27;20040;-73
2022/12/11 09:27:05;;;;;;;59.53;23.47;;;;;;;-0.67;100.00;101078.66;10581822;27;20036;-73
2022/12/11 09:32:05;;;;;;;62.37;23.37;;;;;;;-0.61;100.00;101066.28;10546427;27;20039;-73
2022/12/11 09:37:06;;;;;;;59.30;23.00;;;;;;;-0.70;100.00;101048.44;10563599;27;20069;-73
2022/12/11 09:42:29;;;;;;;67.57;24.23;;;;;;;-0.64;100.00;101045.00;10563704;27;20096;-73
2022/12/11 09:47:37;;;;;;;59.00;21.80;;;;;;;-0.65;100.00;101038.75;10563077;27;20106;-74
2022/12/11 09:53:13;;;;;;;73.57;25.93;;;;;;;-0.54;100.00;101061.00;10561975;28;20036;-73
2022/12/11 09:58:36;;;;;;;60.73;22.47;;;;;;;-0.53;100.00;101051.91;10586072;27;20096;-73
2022/12/11 10:03:55;;;;;;;63.87;22.27;;;;;;;-0.50;100.00;101062.34;10557850;27;20512;-73
2022/12/11 10:09:49;;;;;;;65.43;26.97;;;;;;;-0.53;100.00;101058.13;10586160;27;20487;-73
2022/12/11 10:15:11;;;;;;;64.87;24.97;;;;;;;-0.55;100.00;101060.19;10518996;27;20055;-73
2022/12/11 10:20:11;;;;;;;63.47;23.10;;;;;;;-0.50;100.00;101054.22;10576354;27;20044;-73
2022/12/11 10:25:31;;;;;;;66.30;23.33;;;;;;;-0.45;100.00;101054.56;10545386;28;20068;-73
2022/12/11 10:30:35;;;;;;;63.93;25.30;;;;;;;-0.55;100.00;101007.97;10557095;27;20051;-73
2022/12/11 10:35:45;;;;;;;64.10;25.60;;;;;;;-0.48;100.00;100998.94;10562927;27;20039;-73
2022/12/11 10:40:54;;;;;;;60.90;24.57;;;;;;;-0.25;100.00;101017.91;10548260;27;20039;-72
2022/12/11 10:45:54;;;;;;;63.43;24.03;;;;;;;-0.26;100.00;101013.50;10529918;27;20099;-73
2022/12/11 10:50:57;;;;;;;58.03;22.90;;;;;;;-0.17;100.00;101018.88;10541453;27;20054;-72
2022/12/11 10:55:57;;;;;;;63.07;24.00;;;;;;;-0.20;100.00;101025.47;10559564;27;20047;-73
2022/12/11 11:01:08;;;;;;;66.33;25.73;;;;;;;-0.19;100.00;101016.31;10623765;27;20409;-73
2022/12/11 11:06:14;;;;;;;52.83;22.07;;;;;;;-0.17;100.00;101010.75;10621537;27;20051;-74
2022/12/11 11:11:26;;;;;;;53.88;22.40;;;;;;;-0.25;100.00;101014.34;10621269;27;20039;-73
2022/12/11 11:16:26;;;;;;;61.10;22.57;;;;;;;-0.82;100.00;100929.03;10605627;27;20043;-73
2022/12/11 11:21:30;;;;;;;52.93;21.17;;;;;;;-0.56;100.00;100955.72;10605385;27;20042;-73
2022/12/11 11:26:31;;;;;;;60.60;24.50;;;;;;;-0.23;100.00;101001.47;10606356;27;20039;-73
2022/12/11 11:31:33;;;;;;;58.50;23.13;;;;;;;-0.18;100.00;101006.38;10602478;27;20039;-73
2022/12/11 11:36:34;;;;;;;50.87;23.07;;;;;;;-0.30;100.00;100987.84;10621057;27;20039;-72
2022/12/11 11:42:12;;;;;;;54.85;23.48;;;;;;;-0.18;100.00;101000.97;10602107;27;20411;-72
2022/12/11 11:47:20;;;;;;;50.23;20.27;;;;;;;-0.65;100.00;100949.53;10598719;27;20043;-72
2022/12/11 11:52:33;;;;;;;52.63;22.73;;;;;;;-0.30;100.00;100977.00;10606355;27;20024;-72
2022/12/11 11:57:43;;;;;;;53.87;20.77;;;;;;;-0.21;100.00;100986.75;10606853;27;20046;-71
2022/12/11 12:02:45;;;;;;;64.20;23.73;;;;;;;-0.14;100.00;100996.88;10606510;27;20478;-72
2022/12/11 12:07:46;;;;;;;57.93;23.33;;;;;;;-0.10;100.00;100998.19;10606122;27;20313;-72
2022/12/11 12:12:58;;;;;;;54.80;21.63;;;;;;;-0.14;100.00;100988.75;10627072;27;20088;-72
2022/12/11 12:18:30;;;;;;;56.70;23.67;;;;;;;-0.13;100.00;100998.53;10626221;27;20138;-71
2022/12/11 12:23:55;;;;;;;58.23;21.93;;;;;;;-0.16;100.00;100988.91;10598338;27;20063;-71
2022/12/11 12:29:24;;;;;;;47.60;20.93;;;;;;;-0.22;100.00;100992.34;10581292;27;20036;-71
2022/12/11 12:35:03;;;;;;;56.22;22.60;;;;;;;-0.23;100.00;100986.09;10582058;28;20087;-72
2022/12/11 12:40:27;;;;;;;58.77;21.63;;;;;;;-0.18;100.00;100990.13;10507163;27;20126;-72
2022/12/11 12:45:50;;;;;;;62.40;23.80;;;;;;;-0.21;100.00;100989.47;10581495;27;20058;-71
2022/12/11 12:50:50;;;;;;;58.00;22.27;;;;;;;-0.30;100.00;100976.19;10559181;28;20036;-72
2022/12/11 12:55:51;;;;;;;66.80;24.50;;;;;;;-0.30;100.00;100974.31;10499135;27;20056;-73
2022/12/11 13:00:51;;;;;;;58.33;24.50;;;;;;;-0.24;100.00;100989.81;10521709;27;20042;-72
2022/12/11 13:05:57;;;;;;;59.07;22.57;;;;;;;-0.41;100.00;100962.06;10523007;28;20067;-72
2022/12/11 13:11:09;;;;;;;57.35;22.55;;;;;;;-0.24;100.00;100981.69;10534521;27;20040;-71
2022/12/11 13:16:15;;;;;;;55.53;24.50;;;;;;;-0.17;100.00;100992.63;10488441;28;20482;-72
2022/12/11 13:21:34;;;;;;;61.13;22.60;;;;;;;-0.34;100.00;100972.16;10557467;28;20447;-72
2022/12/11 13:26:34;;;;;;;51.03;22.23;;;;;;;-0.27;100.00;100976.66;10538631;28;20047;-72
2022/12/11 13:31:38;;;;;;;56.17;24.50;;;;;;;-0.29;100.00;100978.72;10516840;27;20048;-72
2022/12/11 13:36:39;;;;;;;52.33;22.20;;;;;;;-0.29;100.00;100986.81;10493301;28;20078;-72
2022/12/11 13:41:43;;;;;;;59.37;24.47;;;;;;;-0.31;100.00;100988.88;10501743;27;20036;-72
2022/12/11 13:46:44;;;;;;;59.77;23.27;;;;;;;-0.22;100.00;100998.59;10546934;27;20115;-71
2022/12/11 13:51:54;;;;;;;56.70;23.00;;;;;;;-0.30;100.00;100995.94;10563323;27;20052;-72
2022/12/11 13:57:07;;;;;;;53.47;23.20;;;;;;;-0.24;100.00;101003.34;10530605;27;20047;-71
2022/12/11 14:02:15;;;;;;;63.60;23.70;;;;;;;-0.24;100.00;100999.81;10544316;27;20070;-72
2022/12/11 14:07:24;;;;;;;60.90;23.30;;;;;;;-0.29;100.00;101003.06;10537522;27;20769;-72
2022/12/11 14:12:24;;;;;;;50.27;24.27;;;;;;;-0.35;100.00;100989.38;10546451;27;20049;-72
2022/12/11 14:17:30;;;;;;;61.20;24.87;;;;;;;-0.31;100.00;100994.28;10562107;27;20050;-73
2022/12/11 14:22:30;;;;;;;64.22;24.17;;;;;;;-0.29;100.00;101008.47;10561809;27;20040;-72
2022/12/11 14:27:32;;;;;;;53.80;22.20;;;;;;;-0.31;100.00;101006.94;10561292;27;20051;-72
2022/12/11 14:32:35;;;;;;;56.70;22.20;;;;;;;-0.32;100.00;101005.28;10562509;27;20054;-72
2022/12/11 14:37:36;;;;;;;63.80;25.93;;;;;;;-0.34;100.00;101007.31;10540177;27;20297;-72
2022/12/11 14:42:47;;;;;;;56.57;24.07;;;;;;;-0.44;100.00;100989.44;10547706;27;20023;-72
2022/12/11 14:47:47;;;;;;;63.17;25.53;;;;;;;-0.50;100.00;100978.50;10548974;27;20062;-73
2022/12/11 14:52:51;;;;;;;65.00;24.33;;;;;;;-0.49;100.00;101004.53;10517359;27;20032;-72
2022/12/11 14:57:55;;;;;;;59.23;24.83;;;;;;;-0.49;100.00;101004.53;10517810;27;20445;-73
2022/12/11 15:03:08;;;;;;;63.17;23.30;;;;;;;-0.40;100.00;101025.09;10517309;28;20136;-72
2022/12/11 15:08:09;;;;;;;60.70;25.43;;;;;;;-0.40;100.00;101014.28;10515326;27;20123;-72
2022/12/11 15:13:09;;;;;;;63.20;23.97;;;;;;;-0.41;100.00;101018.03;10517015;27;20460;-72
2022/12/11 15:18:20;;;;;;;64.77;26.57;;;;;;;-0.51;100.00;101006.59;10483081;27;20044;-72
2022/12/11 15:23:20;;;;;;;62.93;25.77;;;;;;;-0.45;100.00;101020.22;10511752;27;20458;-72
2022/12/11 15:28:28;;;;;;;72.03;26.80;;;;;;;-0.52;100.00;101019.25;10537293;28;20040;-72
2022/12/11 15:33:29;;;;;;;68.53;28.67;;;;;;;-0.47;100.00;101024.97;10561169;27;20131;-72
2022/12/11 15:38:35;;;;;;;72.67;28.20;;;;;;;-0.52;100.00;101008.44;10577967;27;20067;-72
2022/12/11 15:43:36;;;;;;;;;;;;;;;-0.39;100.00;101026.78;10580545;27;20046;-73
2022/12/11 15:48:36;;;;;;;62.87;26.67;;;;;;;-0.41;100.00;101026.97;10577014;27;19995;-72
2022/12/11 15:53:37;;;;;;;72.63;25.60;;;;;;;-0.47;100.00;101013.31;10546287;28;20040;-72
2022/12/11 15:58:37;;;;;;;74.73;27.00;;;;;;;-0.46;100.00;101020.41;10530476;28;20059;-72
2022/12/11 16:03:38;;;;;;;70.87;27.57;;;;;;;-0.48;100.00;101012.47;10506556;27;20039;-72
2022/12/11 16:08:38;;;;;;;81.30;28.77;;;;;;;-0.47;100.00;101019.56;10523568;27;20035;-72
2022/12/11 16:13:39;;;;;;;68.37;24.97;;;;;;;-0.51;100.00;101009.28;10577554;27;20043;-72
2022/12/11 16:18:39;;;;;;;76.50;26.73;;;;;;;-0.63;100.00;100992.63;10562289;28;20439;-72
2022/12/11 16:23:40;;;;;;;63.80;27.47;;;;;;;-0.48;100.00;101022.44;10579797;27;20031;-72
2022/12/11 16:28:41;;;;;;;70.17;28.53;;;;;;;-0.54;100.00;101012.34;10569209;27;20519;-71
2022/12/11 16:33:41;;;;;;;71.33;28.63;;;;;;;-0.48;100.00;101023.28;10569190;27;20059;-71
2022/12/11 16:38:46;;;;;;;65.50;27.60;;;;;;;-0.49;100.00;101031.59;10571255;28;20050;-72
2022/12/11 16:43:46;;;;;;;81.63;27.13;;;;;;;-0.98;100.00;100983.19;10556480;27;20164;-72
2022/12/11 16:48:47;;;;;;;69.77;27.73;;;;;;;-0.57;100.00;101018.13;10575815;27;20102;-71
2022/12/11 16:53:47;;;;;;;76.37;29.77;;;;;;;-0.67;100.00;101002.94;10559810;28;20031;-72
2022/12/11 16:58:48;;;;;;;71.37;27.60;;;;;;;-0.56;100.00;101020.63;10577200;28;20399;-71
2022/12/11 17:03:48;;;;;;;77.73;30.00;;;;;;;-0.53;100.00;101030.25;10575650;27;20349;-71
2022/12/11 17:08:49;;;;;;;66.03;25.40;;;;;;;-0.66;100.00;101012.75;10564455;28;20035;-72
2022/12/11 17:13:54;;;;;;;74.37;27.67;;;;;;;-0.55;100.00;101038.53;10523843;28;20028;-71
2022/12/11 17:18:55;;;;;;;79.50;28.27;;;;;;;-0.52;100.00;101031.94;10576535;27;20039;-71
2022/12/11 17:23:55;;;;;;;72.63;26.93;;;;;;;-0.50;100.00;101036.13;10574326;27;20057;-72
2022/12/11 17:28:56;;;;;;;76.43;28.23;;;;;;;-0.49;100.00;101037.00;10578477;27;20036;-72
2022/12/11 17:33:59;;;;;;;67.07;26.77;;;;;;;-0.52;100.00;101031.94;10543960;28;20066;-72
2022/12/11 17:38:59;;;;;;;82.73;26.53;;;;;;;-0.61;100.00;101029.25;10576821;27;20043;-71
2022/12/11 17:44:00;;;;;;;76.53;28.47;;;;;;;-0.49;100.00;101035.13;10576689;27;20031;-72
2022/12/11 17:49:02;;;;;;;76.33;28.27;;;;;;;-0.54;100.00;101029.41;10581409;27;20036;-72
2022/12/11 17:54:03;;;;;;;78.43;26.93;;;;;;;-0.53;100.00;101038.38;10608361;27;20552;-72
2022/12/11 17:59:03;;;;;;;71.80;27.90;;;;;;;-0.65;100.00;101017.13;10617830;27;20039;-71
2022/12/11 18:04:04;;;;;;;74.95;29.65;;;;;;;-0.58;100.00;101030.75;10594436;27;20027;-72
2022/12/11 18:09:04;;;;;;;78.33;29.50;;;;;;;-0.56;100.00;101041.41;10622155;27;20032;-72
2022/12/11 18:14:05;;;;;;;84.80;32.47;;;;;;;-0.58;100.00;101032.63;10560000;27;20043;-72
2022/12/11 18:19:07;;;;;;;72.53;28.43;;;;;;;-0.58;100.00;101027.22;10592134;27;20517;-71
2022/12/11 18:24:08;;;;;;;77.67;30.37;;;;;;;-0.66;100.00;101023.56;10610808;27;20206;-72
2022/12/11 18:29:08;;;;;;;74.57;27.57;;;;;;;-0.68;100.00;101022.91;10582594;27;20050;-71
2022/12/11 18:34:09;;;;;;;86.17;31.90;;;;;;;-0.66;100.00;101033.53;10585909;27;20039;-72
2022/12/11 18:39:09;;;;;;;66.13;27.17;;;;;;;-0.67;100.00;101029.13;10568010;27;20070;-71
2022/12/11 18:44:10;;;;;;;69.47;27.03;;;;;;;-0.61;100.00;101039.25;10602269;27;20047;-72
2022/12/11 18:49:10;;;;;;;67.53;26.73;;;;;;;-0.71;100.00;101028.66;10627244;27;20119;-72
2022/12/11 18:54:11;;;;;;;72.93;25.17;;;;;;;-0.61;100.00;101044.66;10629576;27;20031;-71
2022/12/11 18:59:14;;;;;;;73.03;27.10;;;;;;;-0.64;100.00;101045.84;10629526;27;20039;-71
2022/12/11 19:04:15;;;;;;;69.40;27.90;;;;;;;-0.66;100.00;101047.06;10628453;27;20076;-72
2022/12/11 19:09:15;;;;;;;75.67;27.70;;;;;;;-0.75;100.00;101035.41;10626215;27;20068;-71
2022/12/11 19:14:16;;;;;;;68.03;26.90;;;;;;;-0.74;100.00;101034.41;10609567;27;20068;-71
2022/12/11 19:19:18;;;;;;;72.03;28.30;;;;;;;-0.62;100.00;101051.06;10626239;27;20027;-71
2022/12/11 19:24:20;;;;;;;82.23;28.83;;;;;;;-0.66;100.00;101058.72;10609731;27;20407;-71
2022/12/11 19:29:22;;;;;;;75.00;28.97;;;;;;;-0.70;100.00;101030.34;10599353;27;20039;-72
2022/12/11 19:34:23;;;;;;;78.57;28.67;;;;;;;-0.78;100.00;101033.09;10566176;27;20435;-72
2022/12/11 19:39:24;;;;;;;73.37;27.07;;;;;;;-0.68;100.00;101049.09;10582439;28;20108;-72
2022/12/11 19:44:25;;;;;;;72.63;28.97;;;;;;;-0.76;100.00;101031.06;10596644;27;20051;-72
2022/12/11 19:49:25;;;;;;;75.80;27.63;;;;;;;-0.74;100.00;101034.41;10565555;27;20032;-72
2022/12/11 19:54:26;;;;;;;75.10;28.27;;;;;;;-0.84;100.00;101018.41;10582646;27;20084;-72
2022/12/11 19:59:26;;;;;;;78.60;30.40;;;;;;;-0.65;100.00;101048.72;10581905;27;20040;-72
2022/12/11 20:04:27;;;;;;;73.73;26.03;;;;;;;-0.74;100.00;101050.63;10581596;27;20032;-72
2022/12/11 20:09:27;;;;;;;73.87;26.87;;;;;;;-0.69;100.00;101053.66;10565288;27;20709;-72
2022/12/11 20:14:28;;;;;;;72.37;29.10;;;;;;;-0.65;100.00;101054.13;10585264;27;20035;-72
2022/12/11 20:19:29;;;;;;;74.00;27.23;;;;;;;-0.73;100.00;101046.91;10562788;28;20040;-72
2022/12/11 20:24:29;;;;;;;70.27;28.70;;;;;;;-0.69;100.00;101059.06;10564717;28;20507;-72
2022/12/11 20:29:30;;;;;;;71.37;27.17;;;;;;;-0.67;100.00;101057.00;10602481;27;20042;-72
2022/12/11 20:34:30;;;;;;;82.67;31.20;;;;;;;-0.67;100.00;101059.72;10621008;27;20046;-72
2022/12/11 20:39:31;;;;;;;70.00;26.90;;;;;;;-0.67;100.00;101051.59;10622783;27;20423;-72
2022/12/11 20:44:31;;;;;;;100.17;43.50;;;;;;;-0.76;100.00;101041.88;10604667;27;20031;-72
2022/12/11 20:49:32;;;;;;;94.33;32.60;;;;;;;-0.75;100.00;101046.22;10571551;27;20047;-72
2022/12/11 20:54:32;;;;;;;75.93;27.43;;;;;;;-0.69;100.00;101058.22;10598401;27;20031;-72
2022/12/11 20:59:33;;;;;;;72.77;27.77;;;;;;;-0.74;100.00;101066.84;10585880;27;20035;-72
2022/12/11 21:04:38;;;;;;;73.33;27.50;;;;;;;-0.78;100.00;101048.47;10586296;27;20028;-72
2022/12/11 21:09:39;;;;;;;65.30;27.40;;;;;;;-0.77;100.00;101044.72;10580035;27;20091;-72
2022/12/11 21:14:39;;;;;;;71.30;27.00;;;;;;;-0.68;100.00;101065.31;10610943;27;20027;-72
2022/12/11 21:19:39;;;;;;;69.63;28.93;;;;;;;-0.72;100.00;101067.53;10621191;27;20043;-74
2022/12/11 21:24:40;;;;;;;85.07;31.03;;;;;;;-0.76;100.00;101068.06;10587263;27;20056;-70
2022/12/11 21:29:41;;;;;;;77.67;28.03;;;;;;;-0.74;100.00;101061.44;10622637;27;21419;-72
2022/12/11 21:34:41;;;;;;;72.60;28.30;;;;;;;-0.68;100.00;101074.28;10603831;27;20084;-72
2022/12/11 21:39:42;;;;;;;67.27;26.73;;;;;;;-0.75;100.00;101061.63;10623160;27;20043;-72
2022/12/11 21:44:42;;;;;;;70.77;30.77;;;;;;;-0.67;100.00;101075.94;10602489;27;20039;-72
2022/12/11 21:49:43;;;;;;;79.83;29.73;;;;;;;-0.71;100.00;101066.50;10621517;27;20035;-72
2022/12/11 21:54:43;;;;;;;71.53;28.60;;;;;;;-0.78;100.00;101060.13;10595370;27;20038;-72
2022/12/11 21:59:44;;;;;;;72.33;30.53;;;;;;;-0.75;100.00;101059.75;10612016;27;20054;-72
2022/12/11 22:04:46;;;;;;;73.67;29.50;;;;;;;-0.78;100.00;101065.53;10613036;27;20444;-71
2022/12/11 22:09:46;;;;;;;64.10;28.33;;;;;;;-0.91;100.00;101057.13;10609291;27;20051;-72
2022/12/11 22:14:47;;;;;;;71.20;28.03;;;;;;;-0.89;100.00;101055.94;10608031;27;20043;-73
2022/12/11 22:19:50;;;;;;;76.37;28.47;;;;;;;-0.74;100.00;101083.09;10605753;27;20038;-73
2022/12/11 22:24:54;;;;;;;65.97;26.97;;;;;;;-0.84;100.00;101072.47;10572207;27;20046;-72
2022/12/11 22:29:54;;;;;;;73.37;30.20;;;;;;;-0.73;100.00;101078.50;10568566;27;20488;-72
2022/12/11 22:34:56;;;;;;;73.47;27.67;;;;;;;-0.77;100.00;101072.59;10573568;27;20043;-72